createdAt,value
2019-05-28T00:00:02.780Z,11.40
2019-05-28T00:01:14.999Z,11.43
2019-05-28T00:02:26.012Z,13.18
2019-05-28T00:03:43.671Z,12.98
2019-05-28T00:04:48.941Z,12.73
2019-05-28T00:07:43.224Z,13.62
2019-05-28T00:08:57.156Z,12.68
2019-05-28T00:10:00.497Z,13.25
2019-05-28T00:11:57.894Z,12.73
2019-05-28T00:12:39.772Z,14.15
2019-05-28T00:13:50.609Z,13.05
2019-05-28T00:15:22.612Z,12.58
2019-05-28T00:16:09.788Z,13.45
2019-05-28T00:17:15.118Z,13.32
2019-05-28T00:18:20.197Z,12.40
2019-05-28T00:19:30.354Z,13.55
2019-05-28T00:20:38.376Z,13.78
2019-05-28T00:21:46.904Z,12.88
2019-05-28T00:22:55.592Z,13.48
2019-05-28T00:24:03.321Z,13.15
2019-05-28T00:25:10.168Z,14.20
2019-05-28T00:26:21.136Z,13.80
2019-05-28T00:27:34.758Z,14.25
2019-05-28T00:28:41.586Z,14.75
2019-05-28T00:29:56.933Z,14.70
2019-05-28T00:31:02.526Z,14.13
2019-05-28T00:32:07.259Z,15.45
2019-05-28T00:33:16.062Z,14.95
2019-05-28T00:34:32.618Z,14.23
2019-05-28T00:35:45.259Z,14.60
2019-05-28T00:36:49.877Z,14.70
2019-05-28T00:37:59.627Z,14.47
2019-05-28T00:39:11.863Z,15.25
2019-05-28T00:40:22.146Z,15.15
2019-05-28T00:42:44.094Z,15.10
2019-05-28T00:43:49.214Z,13.72
2019-05-28T00:45:06.894Z,14.40
2019-05-28T00:46:15.334Z,14.58
2019-05-28T00:47:34.354Z,14.18
2019-05-28T00:48:35.443Z,14.80
2019-05-28T00:49:44.286Z,15.88
2019-05-28T00:50:49.386Z,14.30
2019-05-28T00:51:54.004Z,14.63
2019-05-28T00:53:01.074Z,13.53
2019-05-28T00:54:12.504Z,13.43
2019-05-28T00:55:27.666Z,15.93
2019-05-28T00:56:49.698Z,14.13
2019-05-28T00:57:59.952Z,13.32
2019-05-28T00:58:57.902Z,14.68
2019-05-28T01:00:15.286Z,12.95
2019-05-28T01:01:42.762Z,13.62
2019-05-28T01:02:32.863Z,13.95
2019-05-28T01:03:54.317Z,13.40
2019-05-28T01:04:52.075Z,14.23
2019-05-28T01:06:00.103Z,13.43
2019-05-28T01:07:05.486Z,13.98
2019-05-28T01:08:13.146Z,14.00
2019-05-28T01:09:19.615Z,18.45
2019-05-28T01:10:31.099Z,13.62
2019-05-28T01:11:32.615Z,15.08
2019-05-28T01:12:42.611Z,13.05
2019-05-28T01:13:50.478Z,14.07
2019-05-28T01:14:58.940Z,14.05
2019-05-28T01:16:17.587Z,14.58
2019-05-28T01:17:14.971Z,14.07
2019-05-28T01:18:27.205Z,13.53
2019-05-28T01:19:35.869Z,13.90
2019-05-28T01:20:49.315Z,13.43
2019-05-28T01:22:02.068Z,13.75
2019-05-28T01:23:08.956Z,12.95
2019-05-28T01:24:39.823Z,13.85
2019-05-28T01:25:41.982Z,13.50
2019-05-28T01:26:58.014Z,13.15
2019-05-28T01:27:58.966Z,13.93
2019-05-28T01:29:08.766Z,14.47
2019-05-28T01:30:13.586Z,14.40
2019-05-28T01:31:21.800Z,13.85
2019-05-28T01:32:27.366Z,14.28
2019-05-28T01:33:33.150Z,14.28
2019-05-28T01:34:38.628Z,13.30
2019-05-28T01:35:44.370Z,13.32
2019-05-28T01:36:50.602Z,14.85
2019-05-28T01:37:56.340Z,13.90
2019-05-28T01:39:01.197Z,14.70
2019-05-28T01:40:08.746Z,13.18
2019-05-28T01:41:14.609Z,13.28
2019-05-28T01:42:21.984Z,12.65
2019-05-28T01:43:28.077Z,13.15
2019-05-28T01:44:33.934Z,14.78
2019-05-28T01:45:41.947Z,13.08
2019-05-28T01:46:48.900Z,12.53
2019-05-28T01:47:57.297Z,13.18
2019-05-28T01:49:05.922Z,12.45
2019-05-28T01:50:09.117Z,13.75
2019-05-28T01:51:13.462Z,13.32
2019-05-28T01:52:19.780Z,12.75
2019-05-28T01:53:24.126Z,12.93
2019-05-28T01:54:30.562Z,13.10
2019-05-28T01:55:45.527Z,12.53
2019-05-28T01:56:47.273Z,13.25
2019-05-28T01:57:53.506Z,13.40
2019-05-28T01:59:03.300Z,12.82
2019-05-28T02:00:16.186Z,12.73
2019-05-28T02:01:17.692Z,13.07
2019-05-28T02:02:31.605Z,13.08
2019-05-28T02:03:31.220Z,12.50
2019-05-28T02:04:53.595Z,12.47
2019-05-28T02:05:49.401Z,13.28
2019-05-28T02:06:57.022Z,12.45
2019-05-28T02:08:56.580Z,12.93
2019-05-28T02:09:16.112Z,12.43
2019-05-28T02:10:24.779Z,12.93
2019-05-28T02:12:43.779Z,12.53
2019-05-28T02:13:50.714Z,12.55
2019-05-28T02:14:59.532Z,12.75
2019-05-28T02:16:04.351Z,13.08
2019-05-28T02:17:13.016Z,13.30
2019-05-28T02:18:23.001Z,13.93
2019-05-28T02:19:29.955Z,14.33
2019-05-28T02:20:38.919Z,12.58
2019-05-28T02:21:44.479Z,12.73
2019-05-28T02:22:54.732Z,12.33
2019-05-28T02:23:59.075Z,12.98
2019-05-28T02:25:04.679Z,12.45
2019-05-28T02:26:16.603Z,14.65
2019-05-28T02:27:34.878Z,12.55
2019-05-28T02:28:32.288Z,12.15
2019-05-28T02:29:41.957Z,12.80
2019-05-28T02:30:46.182Z,12.90
2019-05-28T02:31:54.320Z,13.38
2019-05-28T02:33:01.511Z,12.00
2019-05-28T02:34:06.119Z,13.53
2019-05-28T02:35:12.314Z,12.80
2019-05-28T02:36:20.693Z,12.43
2019-05-28T02:37:27.782Z,13.10
2019-05-28T02:38:35.075Z,12.10
2019-05-28T02:39:40.082Z,12.75
2019-05-28T02:40:47.198Z,12.43
2019-05-28T02:41:56.579Z,13.13
2019-05-28T02:43:09.094Z,13.15
2019-05-28T02:44:32.900Z,13.25
2019-05-28T02:45:29.331Z,13.68
2019-05-28T02:46:33.534Z,13.05
2019-05-28T02:47:46.098Z,13.28
2019-05-28T02:48:50.949Z,12.82
2019-05-28T02:50:01.070Z,12.43
2019-05-28T02:51:08.322Z,13.15
2019-05-28T02:52:16.017Z,13.90
2019-05-28T02:53:22.077Z,13.45
2019-05-28T02:54:31.952Z,14.30
2019-05-28T02:55:44.413Z,14.70
2019-05-28T02:56:50.647Z,14.23
2019-05-28T02:57:56.772Z,13.95
2019-05-28T02:59:09.254Z,12.95
2019-05-28T03:00:16.191Z,14.20
2019-05-28T03:01:43.484Z,14.58
2019-05-28T03:02:35.598Z,17.23
2019-05-28T03:03:47.583Z,14.95
2019-05-28T03:04:50.087Z,14.43
2019-05-28T03:05:57.928Z,15.08
2019-05-28T03:09:33.035Z,13.98
2019-05-28T03:11:01.237Z,13.30
2019-05-28T03:11:50.536Z,13.43
2019-05-28T03:13:22.348Z,14.00
2019-05-28T03:14:13.137Z,12.70
2019-05-28T03:15:22.066Z,13.78
2019-05-28T03:16:32.211Z,14.33
2019-05-28T03:17:42.098Z,14.70
2019-05-28T03:18:52.228Z,13.68
2019-05-28T03:19:58.119Z,15.05
2019-05-28T03:21:14.226Z,14.30
2019-05-28T03:22:15.932Z,13.68
2019-05-28T03:23:21.004Z,14.70
2019-05-28T03:24:29.076Z,14.18
2019-05-28T03:25:41.267Z,14.65
2019-05-28T03:26:51.372Z,13.88
2019-05-28T03:27:58.886Z,13.30
2019-05-28T03:29:05.454Z,14.33
2019-05-28T03:30:21.314Z,14.05
2019-05-28T03:31:26.689Z,13.50
2019-05-28T03:32:59.151Z,12.98
2019-05-28T03:34:09.648Z,14.15
2019-05-28T03:35:20.054Z,14.05
2019-05-28T03:36:44.890Z,13.40
2019-05-28T03:37:47.281Z,13.55
2019-05-28T03:38:54.487Z,13.60
2019-05-28T03:39:59.311Z,14.28
2019-05-28T03:41:05.633Z,13.85
2019-05-28T03:42:12.256Z,13.85
2019-05-28T03:43:21.293Z,13.95
2019-05-28T03:44:28.658Z,13.53
2019-05-28T03:45:42.849Z,13.72
2019-05-28T03:46:53.562Z,13.55
2019-05-28T03:49:38.165Z,13.58
2019-05-28T03:50:16.121Z,13.93
2019-05-28T03:51:22.274Z,13.83
2019-05-28T03:52:30.220Z,13.55
2019-05-28T03:53:58.515Z,13.60
2019-05-28T03:54:52.199Z,14.10
2019-05-28T03:56:11.657Z,14.07
2019-05-28T03:57:16.741Z,13.83
2019-05-28T03:58:15.997Z,14.53
2019-05-28T04:00:55.923Z,13.53
2019-05-28T04:02:22.691Z,14.00
2019-05-28T04:03:17.381Z,14.03
2019-05-28T04:04:32.994Z,13.85
2019-05-28T04:05:45.031Z,13.78
2019-05-28T04:06:58.703Z,13.45
2019-05-28T04:08:09.952Z,13.85
2019-05-28T04:09:19.184Z,14.78
2019-05-28T04:10:25.728Z,14.50
2019-05-28T04:13:36.584Z,14.58
2019-05-28T04:14:24.623Z,14.38
2019-05-28T04:15:29.489Z,15.43
2019-05-28T04:16:46.544Z,15.05
2019-05-28T04:19:16.079Z,14.85
2019-05-28T04:22:21.243Z,13.98
2019-05-28T04:23:06.157Z,15.15
2019-05-28T04:24:59.535Z,14.95
2019-05-28T04:25:18.026Z,14.70
2019-05-28T04:27:35.207Z,15.03
2019-05-28T04:29:07.890Z,14.55
2019-05-28T04:29:54.298Z,15.55
2019-05-28T04:31:06.921Z,14.85
2019-05-28T04:32:10.749Z,14.35
2019-05-28T04:33:24.018Z,15.75
2019-05-28T04:34:29.787Z,14.50
2019-05-28T04:35:35.667Z,14.47
2019-05-28T04:36:46.666Z,15.70
2019-05-28T04:37:49.343Z,15.68
2019-05-28T04:38:57.134Z,15.63
2019-05-28T04:40:09.093Z,16.75
2019-05-28T04:41:11.043Z,15.32
2019-05-28T04:42:19.243Z,16.02
2019-05-28T04:43:25.366Z,16.17
2019-05-28T04:44:31.206Z,14.95
2019-05-28T04:45:36.051Z,15.68
2019-05-28T04:46:43.533Z,17.27
2019-05-28T04:47:54.185Z,16.67
2019-05-28T04:49:00.698Z,14.33
2019-05-28T04:50:09.716Z,14.65
2019-05-28T04:51:17.053Z,15.70
2019-05-28T04:52:25.173Z,17.10
2019-05-28T04:53:29.271Z,15.65
2019-05-28T04:54:59.383Z,16.48
2019-05-28T04:55:48.451Z,15.78
2019-05-28T04:56:55.785Z,15.53
2019-05-28T04:58:01.887Z,17.60
2019-05-28T04:59:07.639Z,18.25
2019-05-28T05:00:16.133Z,15.43
2019-05-28T05:01:22.166Z,15.95
2019-05-28T05:02:28.069Z,15.95
2019-05-28T05:03:36.614Z,15.70
2019-05-28T05:04:40.345Z,15.70
2019-05-28T05:05:46.301Z,15.08
2019-05-28T05:06:52.206Z,15.28
2019-05-28T05:08:00.553Z,16.67
2019-05-28T05:09:07.579Z,15.20
2019-05-28T05:10:19.257Z,15.43
2019-05-28T05:11:23.452Z,14.98
2019-05-28T05:12:29.429Z,15.83
2019-05-28T05:13:34.249Z,14.75
2019-05-28T05:14:41.603Z,15.98
2019-05-28T05:15:47.205Z,14.15
2019-05-28T05:16:54.812Z,15.03
2019-05-28T05:18:02.829Z,14.18
2019-05-28T05:19:08.667Z,15.00
2019-05-28T05:20:14.741Z,14.95
2019-05-28T05:21:21.929Z,15.03
2019-05-28T05:22:32.238Z,14.28
2019-05-28T05:24:53.638Z,13.83
2019-05-28T05:26:00.537Z,12.78
2019-05-28T05:27:05.218Z,14.00
2019-05-28T05:28:11.413Z,14.23
2019-05-28T05:29:16.799Z,13.83
2019-05-28T05:30:24.295Z,13.95
2019-05-28T05:31:33.767Z,12.73
2019-05-28T05:32:40.431Z,14.28
2019-05-28T05:33:54.231Z,15.32
2019-05-28T05:35:06.357Z,14.28
2019-05-28T05:36:15.281Z,13.78
2019-05-28T05:37:22.689Z,13.35
2019-05-28T05:38:41.621Z,12.35
2019-05-28T05:39:43.771Z,14.05
2019-05-28T05:41:11.602Z,13.62
2019-05-28T05:41:55.687Z,13.90
2019-05-28T05:43:04.198Z,13.72
2019-05-28T05:44:25.416Z,14.13
2019-05-28T05:45:23.600Z,13.78
2019-05-28T05:46:28.035Z,15.75
2019-05-28T05:47:45.087Z,13.83
2019-05-28T05:48:49.411Z,14.50
2019-05-28T05:50:03.016Z,13.43
2019-05-28T05:51:05.749Z,14.13
2019-05-28T05:52:13.239Z,15.30
2019-05-28T05:53:17.815Z,14.60
2019-05-28T05:54:25.137Z,13.55
2019-05-28T05:55:32.877Z,14.83
2019-05-28T05:56:38.488Z,13.75
2019-05-28T05:57:44.048Z,16.95
2019-05-28T05:58:52.810Z,14.28
2019-05-28T05:59:57.371Z,16.25
2019-05-28T06:01:04.756Z,13.60
2019-05-28T06:02:14.119Z,13.40
2019-05-28T06:03:39.006Z,13.00
2019-05-28T06:04:33.089Z,14.13
2019-05-28T06:05:42.467Z,13.25
2019-05-28T06:06:48.041Z,13.85
2019-05-28T06:07:52.828Z,12.98
2019-05-28T06:08:59.817Z,13.43
2019-05-28T06:10:07.475Z,14.73
2019-05-28T06:11:13.427Z,13.10
2019-05-28T06:12:25.985Z,12.50
2019-05-28T06:13:38.121Z,13.83
2019-05-28T06:14:45.276Z,13.78
2019-05-28T06:15:53.804Z,14.20
2019-05-28T06:17:01.121Z,13.05
2019-05-28T06:18:05.809Z,12.23
2019-05-28T06:19:13.810Z,12.65
2019-05-28T06:20:28.978Z,12.85
2019-05-28T06:21:28.511Z,13.32
2019-05-28T06:22:32.884Z,12.53
2019-05-28T06:23:39.550Z,13.58
2019-05-28T06:24:45.476Z,13.13
2019-05-28T06:25:50.083Z,12.98
2019-05-28T06:26:58.156Z,12.93
2019-05-28T06:28:02.783Z,12.60
2019-05-28T06:29:10.695Z,12.68
2019-05-28T06:30:22.406Z,11.20
2019-05-28T06:31:27.197Z,11.70
2019-05-28T06:32:35.507Z,12.03
2019-05-28T06:33:55.599Z,11.60
2019-05-28T06:34:51.171Z,11.35
2019-05-28T06:36:05.827Z,10.63
2019-05-28T06:37:11.550Z,11.60
2019-05-28T06:38:15.972Z,10.50
2019-05-28T06:39:24.276Z,11.00
2019-05-28T06:40:33.555Z,10.93
2019-05-28T06:41:45.903Z,11.28
2019-05-28T06:42:49.817Z,10.75
2019-05-28T06:43:58.962Z,11.03
2019-05-28T06:45:07.414Z,11.28
2019-05-28T06:46:12.141Z,11.03
2019-05-28T06:47:16.656Z,11.10
2019-05-28T06:48:21.316Z,11.03
2019-05-28T06:49:29.155Z,10.68
2019-05-28T06:50:36.630Z,11.03
2019-05-28T06:51:46.745Z,11.10
2019-05-28T06:52:51.358Z,11.43
2019-05-28T06:53:57.969Z,10.82
2019-05-28T06:55:04.098Z,11.65
2019-05-28T06:56:10.679Z,11.10
2019-05-28T06:57:22.680Z,10.48
2019-05-28T06:58:38.670Z,10.80
2019-05-28T06:59:35.179Z,10.53
2019-05-28T07:00:41.199Z,11.70
2019-05-28T07:01:47.606Z,10.72
2019-05-28T07:02:52.112Z,10.93
2019-05-28T07:04:12.775Z,10.70
2019-05-28T07:05:02.852Z,10.40
2019-05-28T07:06:09.028Z,13.60
2019-05-28T07:07:16.877Z,11.75
2019-05-28T07:08:27.045Z,12.47
2019-05-28T07:09:34.201Z,12.90
2019-05-28T07:10:54.262Z,11.97
2019-05-28T07:11:46.501Z,11.60
2019-05-28T07:12:50.939Z,11.63
2019-05-28T07:13:58.131Z,11.63
2019-05-28T07:15:03.562Z,11.33
2019-05-28T07:16:09.102Z,11.93
2019-05-28T07:17:14.300Z,12.88
2019-05-28T07:18:18.737Z,11.55
2019-05-28T07:19:25.318Z,12.15
2019-05-28T07:20:30.225Z,11.85
2019-05-28T07:21:36.149Z,11.90
2019-05-28T07:22:40.644Z,12.28
2019-05-28T07:23:46.719Z,12.18
2019-05-28T07:24:53.967Z,13.05
2019-05-28T07:25:59.137Z,14.78
2019-05-28T07:27:03.681Z,12.15
2019-05-28T07:28:11.784Z,11.12
2019-05-28T07:29:15.907Z,10.82
2019-05-28T07:30:20.761Z,11.12
2019-05-28T07:31:28.344Z,10.30
2019-05-28T07:32:33.297Z,10.60
2019-05-28T07:33:37.860Z,10.55
2019-05-28T07:34:42.371Z,11.50
2019-05-28T07:35:50.911Z,11.63
2019-05-28T07:36:59.813Z,11.33
2019-05-28T07:38:05.728Z,11.40
2019-05-28T07:39:12.245Z,11.00
2019-05-28T07:40:30.936Z,11.12
2019-05-28T07:41:30.976Z,13.00
2019-05-28T07:42:38.939Z,11.80
2019-05-28T07:43:43.581Z,11.43
2019-05-28T07:44:47.991Z,10.85
2019-05-28T07:45:54.854Z,11.25
2019-05-28T07:47:00.702Z,10.80
2019-05-28T07:48:11.848Z,10.80
2019-05-28T07:49:12.302Z,10.78
2019-05-28T07:50:19.438Z,11.88
2019-05-28T07:51:23.065Z,12.82
2019-05-28T07:52:29.396Z,12.13
2019-05-28T07:53:39.892Z,11.65
2019-05-28T07:54:40.014Z,11.68
2019-05-28T07:55:45.848Z,11.57
2019-05-28T07:56:51.831Z,13.62
2019-05-28T07:57:56.190Z,12.07
2019-05-28T07:59:03.458Z,12.55
2019-05-28T08:00:10.186Z,11.88
2019-05-28T08:01:17.789Z,12.15
2019-05-28T08:02:25.078Z,13.53
2019-05-28T08:03:33.689Z,12.37
2019-05-28T08:04:47.188Z,12.82
2019-05-28T08:05:46.067Z,12.58
2019-05-28T08:06:55.050Z,13.20
2019-05-28T08:07:59.304Z,12.47
2019-05-28T08:09:06.048Z,12.58
2019-05-28T08:10:12.474Z,12.58
2019-05-28T08:11:18.668Z,12.78
2019-05-28T08:12:33.919Z,12.30
2019-05-28T08:13:41.552Z,12.33
2019-05-28T08:14:50.967Z,12.20
2019-05-28T08:15:55.549Z,12.23
2019-05-28T08:17:00.164Z,12.60
2019-05-28T08:18:05.610Z,12.23
2019-05-28T08:19:11.309Z,12.98
2019-05-28T08:20:18.564Z,12.60
2019-05-28T08:21:22.531Z,12.15
2019-05-28T08:22:41.128Z,12.10
2019-05-28T08:23:33.172Z,12.20
2019-05-28T08:24:39.052Z,11.85
2019-05-28T08:25:47.481Z,12.90
2019-05-28T08:26:52.767Z,11.60
2019-05-28T08:28:16.396Z,14.93
2019-05-28T08:29:06.327Z,18.75
2019-05-28T08:30:11.338Z,12.23
2019-05-28T08:31:20.761Z,12.82
2019-05-28T08:32:22.182Z,12.45
2019-05-28T08:33:26.627Z,11.60
2019-05-28T08:34:32.736Z,12.18
2019-05-28T08:35:37.152Z,11.30
2019-05-28T08:36:41.787Z,11.78
2019-05-28T08:37:46.165Z,12.03
2019-05-28T08:38:56.426Z,12.98
2019-05-28T08:41:06.512Z,11.08
2019-05-28T08:42:10.988Z,10.32
2019-05-28T08:43:15.622Z,11.28
2019-05-28T08:44:25.334Z,11.20
2019-05-28T08:45:29.930Z,11.63
2019-05-28T08:46:35.894Z,12.60
2019-05-28T08:47:41.789Z,11.00
2019-05-28T08:48:48.607Z,11.55
2019-05-28T08:49:53.229Z,11.05
2019-05-28T08:51:02.854Z,11.93
2019-05-28T08:52:09.832Z,10.50
2019-05-28T08:53:13.522Z,11.43
2019-05-28T08:54:18.136Z,11.25
2019-05-28T08:55:24.188Z,10.15
2019-05-28T08:56:29.413Z,10.25
2019-05-28T08:57:39.654Z,10.35
2019-05-28T08:58:43.795Z,13.25
2019-05-28T08:59:48.177Z,10.88
2019-05-28T09:00:52.864Z,11.50
2019-05-28T09:01:57.334Z,11.88
2019-05-28T09:03:05.159Z,11.60
2019-05-28T09:04:10.122Z,11.20
2019-05-28T09:05:25.902Z,11.12
2019-05-28T09:06:26.277Z,10.78
2019-05-28T09:07:31.181Z,11.22
2019-05-28T09:08:40.103Z,13.13
2019-05-28T09:09:49.456Z,11.60
2019-05-28T09:10:55.421Z,11.45
2019-05-28T09:12:00.044Z,16.97
2019-05-28T09:13:08.776Z,16.30
2019-05-28T09:14:17.670Z,11.35
2019-05-28T09:15:26.067Z,11.35
2019-05-28T09:16:30.585Z,11.75
2019-05-28T09:17:35.202Z,10.75
2019-05-28T09:18:39.720Z,11.35
2019-05-28T09:19:45.252Z,12.73
2019-05-28T09:20:51.326Z,11.53
2019-05-28T09:21:58.383Z,10.63
2019-05-28T09:23:05.852Z,10.63
2019-05-28T09:24:10.208Z,10.65
2019-05-28T09:25:14.870Z,10.58
2019-05-28T09:26:19.227Z,10.35
2019-05-28T09:27:23.834Z,11.10
2019-05-28T09:28:30.956Z,10.65
2019-05-28T09:29:34.464Z,10.25
2019-05-28T09:30:38.871Z,10.00
2019-05-28T09:31:43.595Z,9.80
2019-05-28T09:32:49.954Z,9.38
2019-05-28T09:34:00.211Z,10.28
2019-05-28T09:35:13.234Z,10.40
2019-05-28T09:36:15.463Z,9.73
2019-05-28T09:37:21.343Z,9.43
2019-05-28T09:38:27.516Z,9.53
2019-05-28T09:39:31.910Z,9.05
2019-05-28T09:40:49.453Z,9.95
2019-05-28T09:41:43.960Z,9.63
2019-05-28T09:42:48.582Z,9.43
2019-05-28T09:43:52.892Z,9.73
2019-05-28T09:44:57.430Z,9.60
2019-05-28T09:46:02.843Z,9.43
2019-05-28T09:47:07.419Z,11.05
2019-05-28T09:48:14.556Z,9.90
2019-05-28T09:49:19.194Z,10.48
2019-05-28T09:50:30.754Z,10.35
2019-05-28T09:51:31.470Z,10.05
2019-05-28T09:52:52.573Z,9.78
2019-05-28T09:53:44.572Z,8.98
2019-05-28T09:54:49.060Z,8.93
2019-05-28T09:55:53.642Z,9.50
2019-05-28T09:56:58.122Z,10.48
2019-05-28T09:58:02.618Z,9.18
2019-05-28T09:59:07.134Z,9.20
2019-05-28T10:00:17.942Z,9.00
2019-05-28T10:01:23.345Z,8.73
2019-05-28T10:02:29.284Z,8.78
2019-05-28T10:03:35.111Z,9.25
2019-05-28T10:04:49.387Z,10.72
2019-05-28T10:06:01.701Z,9.00
2019-05-28T10:07:00.552Z,10.38
2019-05-28T10:08:02.293Z,9.90
2019-05-28T10:09:16.730Z,8.60
2019-05-28T10:10:23.708Z,11.90
2019-05-28T10:11:38.714Z,8.35
2019-05-28T10:12:37.147Z,9.73
2019-05-28T10:13:43.072Z,8.33
2019-05-28T10:14:48.880Z,8.70
2019-05-28T10:15:53.233Z,8.43
2019-05-28T10:16:58.014Z,10.95
2019-05-28T10:18:03.887Z,8.33
2019-05-28T10:19:10.138Z,8.15
2019-05-28T10:20:19.170Z,8.95
2019-05-28T10:21:26.300Z,9.20
2019-05-28T10:22:30.479Z,8.10
2019-05-28T10:23:36.885Z,7.85
2019-05-28T10:24:41.248Z,8.10
2019-05-28T10:25:48.077Z,7.60
2019-05-28T10:26:55.185Z,9.30
2019-05-28T10:28:13.839Z,7.72
2019-05-28T10:29:17.237Z,9.03
2019-05-28T10:30:24.469Z,8.50
2019-05-28T10:31:28.670Z,8.10
2019-05-28T10:32:33.464Z,9.30
2019-05-28T10:33:37.626Z,8.18
2019-05-28T10:34:42.436Z,8.88
2019-05-28T10:35:48.672Z,9.68
2019-05-28T10:36:58.517Z,8.93
2019-05-28T10:38:02.430Z,7.92
2019-05-28T10:39:10.490Z,7.17
2019-05-28T10:40:16.646Z,8.10
2019-05-28T10:41:21.572Z,8.95
2019-05-28T10:42:27.343Z,6.92
2019-05-28T10:43:34.947Z,9.50
2019-05-28T10:44:45.290Z,9.80
2019-05-28T10:45:51.878Z,8.00
2019-05-28T10:46:58.889Z,9.43
2019-05-28T10:48:03.812Z,9.13
2019-05-28T10:49:08.309Z,9.33
2019-05-28T10:50:14.420Z,7.78
2019-05-28T10:51:19.895Z,10.30
2019-05-28T10:52:26.156Z,7.30
2019-05-28T10:53:30.407Z,8.73
2019-05-28T10:54:37.337Z,9.58
2019-05-28T10:55:42.986Z,8.88
2019-05-28T10:56:47.813Z,7.28
2019-05-28T10:57:51.952Z,7.70
2019-05-28T10:58:56.767Z,7.03
2019-05-28T11:00:05.493Z,7.00
2019-05-28T11:01:09.354Z,6.35
2019-05-28T11:02:13.581Z,7.03
2019-05-28T11:03:19.455Z,6.97
2019-05-28T11:04:28.070Z,7.65
2019-05-28T11:05:32.951Z,7.78
2019-05-28T11:06:50.793Z,10.20
2019-05-28T11:07:46.794Z,8.08
2019-05-28T11:08:52.587Z,7.15
2019-05-28T11:09:59.756Z,6.78
2019-05-28T11:11:05.103Z,7.55
2019-05-28T11:12:12.871Z,7.55
2019-05-28T11:13:17.699Z,6.50
2019-05-28T11:14:44.246Z,6.62
2019-05-28T11:15:50.237Z,6.53
2019-05-28T11:16:55.189Z,6.85
2019-05-28T11:17:59.560Z,7.80
2019-05-28T11:19:05.867Z,7.40
2019-05-28T11:20:12.444Z,6.55
2019-05-28T11:21:18.809Z,6.78
2019-05-28T11:22:22.946Z,6.62
2019-05-28T11:23:32.008Z,7.87
2019-05-28T11:24:36.213Z,9.10
2019-05-28T11:25:44.463Z,8.50
2019-05-28T11:26:50.012Z,7.53
2019-05-28T11:27:54.864Z,6.70
2019-05-28T11:29:00.143Z,7.33
2019-05-28T11:30:09.269Z,8.45
2019-05-28T11:31:15.120Z,8.25
2019-05-28T11:32:20.459Z,7.28
2019-05-28T11:33:25.922Z,7.30
2019-05-28T11:34:31.773Z,7.85
2019-05-28T11:35:37.512Z,6.85
2019-05-28T11:36:42.213Z,7.67
2019-05-28T11:37:46.431Z,8.50
2019-05-28T11:38:51.155Z,7.85
2019-05-28T11:39:55.512Z,8.48
2019-05-28T11:41:01.330Z,11.38
2019-05-28T11:42:05.505Z,12.10
2019-05-28T11:43:10.285Z,9.20
2019-05-28T11:44:16.120Z,11.00
2019-05-28T11:45:22.321Z,11.57
2019-05-28T11:46:27.876Z,10.93
2019-05-28T11:47:32.723Z,8.38
2019-05-28T11:48:39.765Z,10.60
2019-05-28T11:49:44.521Z,8.83
2019-05-28T11:50:48.851Z,7.85
2019-05-28T11:51:55.282Z,10.85
2019-05-28T11:53:01.861Z,9.28
2019-05-28T11:54:06.659Z,9.08
2019-05-28T11:55:13.533Z,10.48
2019-05-28T11:56:20.719Z,9.20
2019-05-28T11:57:25.835Z,8.33
2019-05-28T11:58:30.557Z,9.70
2019-05-28T11:59:34.726Z,9.65
2019-05-28T12:00:40.190Z,9.18
2019-05-28T12:01:45.520Z,9.28
2019-05-28T12:02:50.467Z,9.40
2019-05-28T12:03:54.704Z,10.00
2019-05-28T12:04:59.423Z,11.73
2019-05-28T12:06:03.729Z,9.58
2019-05-28T12:07:22.922Z,10.10
2019-05-28T12:08:14.496Z,9.30
2019-05-28T12:09:21.792Z,8.75
2019-05-28T12:10:26.265Z,8.63
2019-05-28T12:11:32.958Z,8.98
2019-05-28T12:12:40.123Z,10.45
2019-05-28T12:13:45.457Z,8.68
2019-05-28T12:14:51.390Z,9.40
2019-05-28T12:15:56.119Z,9.23
2019-05-28T12:17:02.915Z,9.73
2019-05-28T12:18:08.862Z,9.63
2019-05-28T12:19:14.564Z,8.60
2019-05-28T12:20:22.572Z,8.98
2019-05-28T12:21:28.186Z,10.10
2019-05-28T12:22:32.916Z,8.50
2019-05-28T12:23:39.473Z,10.00
2019-05-28T12:24:44.289Z,9.23
2019-05-28T12:25:49.911Z,9.40
2019-05-28T12:26:54.621Z,9.53
2019-05-28T12:27:58.816Z,8.40
2019-05-28T12:29:05.522Z,8.13
2019-05-28T12:30:17.976Z,8.48
2019-05-28T12:31:20.961Z,9.18
2019-05-28T12:32:28.545Z,7.42
2019-05-28T12:33:39.470Z,10.50
2019-05-28T12:34:42.435Z,10.98
2019-05-28T12:35:49.752Z,8.55
2019-05-28T12:36:56.284Z,9.65
2019-05-28T12:38:03.460Z,9.83
2019-05-28T12:39:08.790Z,10.13
2019-05-28T12:40:15.120Z,9.63
2019-05-28T12:41:19.379Z,9.35
2019-05-28T12:42:24.071Z,9.38
2019-05-28T12:43:28.251Z,11.57
2019-05-28T12:44:42.167Z,9.08
2019-05-28T12:45:38.905Z,8.60
2019-05-28T12:46:44.324Z,12.60
2019-05-28T12:48:07.114Z,8.90
2019-05-28T12:48:56.510Z,9.35
2019-05-28T12:50:18.118Z,10.85
2019-05-28T12:51:07.275Z,10.10
2019-05-28T12:52:14.113Z,9.80
2019-05-28T12:53:20.529Z,8.88
2019-05-28T12:54:24.758Z,10.10
2019-05-28T12:55:30.944Z,9.00
2019-05-28T12:56:36.548Z,7.47
2019-05-28T12:57:41.343Z,8.48
2019-05-28T12:58:45.577Z,9.18
2019-05-28T12:59:50.331Z,8.65
2019-05-28T13:00:54.641Z,8.33
2019-05-28T13:02:01.733Z,8.65
2019-05-28T13:03:06.145Z,9.83
2019-05-28T13:04:11.024Z,10.63
2019-05-28T13:05:18.342Z,7.78
2019-05-28T13:06:23.156Z,7.45
2019-05-28T13:07:28.896Z,11.73
2019-05-28T13:08:35.088Z,7.47
2019-05-28T13:09:39.388Z,8.43
2019-05-28T13:10:44.311Z,6.85
2019-05-28T13:11:49.490Z,9.75
2019-05-28T13:12:55.286Z,7.15
2019-05-28T13:14:02.415Z,8.55
2019-05-28T13:15:08.155Z,7.80
2019-05-28T13:16:13.373Z,6.83
2019-05-28T13:17:18.085Z,5.97
2019-05-28T13:18:22.738Z,10.48
2019-05-28T13:19:30.283Z,7.87
2019-05-28T13:20:38.921Z,9.33
2019-05-28T13:21:48.436Z,8.55
2019-05-28T13:22:57.502Z,6.40
2019-05-28T13:24:03.797Z,5.17
2019-05-28T13:25:09.642Z,9.68
2019-05-28T13:26:15.548Z,5.65
2019-05-28T13:27:21.263Z,8.75
2019-05-28T13:28:26.116Z,7.37
2019-05-28T13:29:32.913Z,9.23
2019-05-28T13:30:40.518Z,6.62
2019-05-28T13:31:45.444Z,8.70
2019-05-28T13:33:55.403Z,6.75
2019-05-28T13:33:57.825Z,11.50
2019-05-28T13:35:08.889Z,7.60
2019-05-28T13:36:16.765Z,6.72
2019-05-28T13:37:31.642Z,6.12
2019-05-28T13:38:37.160Z,7.10
2019-05-28T13:39:47.277Z,7.75
2019-05-28T13:40:53.161Z,7.55
2019-05-28T13:41:58.575Z,7.45
2019-05-28T13:43:04.165Z,5.75
2019-05-28T13:44:10.548Z,6.92
2019-05-28T13:45:17.958Z,6.67
2019-05-28T13:46:22.715Z,7.83
2019-05-28T13:47:33.631Z,5.30
2019-05-28T13:48:39.116Z,5.40
2019-05-28T13:49:46.197Z,4.97
2019-05-28T13:51:16.644Z,5.85
2019-05-28T13:52:27.507Z,7.85
2019-05-28T13:53:37.707Z,4.83
2019-05-28T13:57:32.254Z,7.12
2019-05-28T13:58:34.820Z,8.63
2019-05-28T14:00:53.233Z,9.80
2019-05-28T14:02:04.235Z,8.20
2019-05-28T14:03:28.544Z,6.78
2019-05-28T14:06:07.291Z,9.45
2019-05-28T14:07:21.140Z,7.28
2019-05-28T14:08:44.292Z,4.55
2019-05-28T14:09:31.551Z,9.00
2019-05-28T14:10:49.449Z,7.05
2019-05-28T14:14:37.855Z,7.30
2019-05-28T14:15:47.572Z,4.28
2019-05-28T14:17:16.229Z,5.45
2019-05-28T14:18:27.104Z,5.65
2019-05-28T14:19:34.804Z,8.13
2019-05-28T14:20:47.946Z,5.10
2019-05-28T14:21:58.168Z,5.42
2019-05-28T14:23:07.719Z,6.20
2019-05-28T14:24:28.413Z,5.55
2019-05-28T14:25:27.563Z,3.55
2019-05-28T14:26:34.033Z,4.25
2019-05-28T14:27:56.271Z,5.65
2019-05-28T14:29:00.315Z,5.30
2019-05-28T14:30:26.912Z,4.00
2019-05-28T14:37:14.811Z,7.00
2019-05-28T14:38:25.369Z,6.53
2019-05-28T14:39:41.094Z,6.62
2019-05-28T14:40:46.585Z,8.38
2019-05-28T14:44:43.247Z,7.97
2019-05-28T14:45:46.877Z,6.00
2019-05-28T14:46:52.489Z,5.80
2019-05-28T14:47:58.796Z,9.50
2019-05-28T14:49:06.828Z,7.87
2019-05-28T14:50:11.283Z,6.30
2019-05-28T14:51:15.454Z,6.33
2019-05-28T14:52:20.354Z,6.35
2019-05-28T14:53:24.594Z,7.50
2019-05-28T14:54:29.408Z,7.10
2019-05-28T14:55:35.011Z,11.15
2019-05-28T14:56:39.738Z,8.48
2019-05-28T14:57:44.013Z,11.03
2019-05-28T14:58:49.070Z,9.35
2019-05-28T14:59:53.146Z,9.60
2019-05-28T15:00:57.833Z,9.38
2019-05-28T15:02:01.915Z,9.28
2019-05-28T15:03:06.594Z,8.08
2019-05-28T15:04:10.669Z,15.60
2019-05-28T15:05:16.451Z,10.50
2019-05-28T15:06:20.515Z,10.23
2019-05-28T15:07:25.161Z,6.95
2019-05-28T15:08:29.296Z,8.93
2019-05-28T15:09:34.300Z,9.20